createdAt,value
2019-04-29T00:02:00.568Z,99.90
2019-04-29T00:04:48.880Z,99.90
2019-04-29T00:07:37.346Z,99.90
2019-04-29T00:16:41.378Z,99.90
2019-04-29T00:19:44.772Z,99.90
2019-04-29T00:22:13.670Z,99.90
2019-04-29T00:24:42.614Z,99.90
2019-04-29T00:27:11.486Z,99.90
2019-04-29T00:29:59.666Z,99.90
2019-04-29T00:32:47.764Z,99.90
2019-04-29T00:35:55.100Z,99.90
2019-04-29T00:39:02.727Z,99.90
2019-04-29T00:42:05.615Z,99.90
2019-04-29T00:44:46.699Z,99.90
2019-04-29T00:47:28.089Z,99.90
2019-04-29T00:50:08.746Z,99.90
2019-04-29T00:52:50.303Z,99.90
2019-04-29T00:55:32.843Z,99.90
2019-04-29T00:58:14.128Z,99.90
2019-04-29T01:00:53.472Z,99.90
2019-04-29T01:03:41.806Z,99.90
2019-04-29T01:06:29.885Z,99.90
2019-04-29T01:12:26.825Z,99.90
2019-04-29T01:15:15.718Z,99.90
2019-04-29T01:18:04.305Z,99.90
2019-04-29T01:20:52.369Z,99.90
2019-04-29T01:23:40.475Z,99.90
2019-04-29T01:26:47.633Z,99.90
2019-04-29T01:29:35.739Z,99.90
2019-04-29T01:32:24.061Z,99.90
2019-04-29T01:35:12.208Z,99.90
2019-04-29T01:38:00.233Z,99.90
2019-04-29T01:41:07.861Z,99.90
2019-04-29T01:44:15.007Z,99.90
2019-04-29T01:46:56.408Z,99.90
2019-04-29T01:49:36.765Z,99.90
2019-04-29T01:52:17.369Z,99.90
2019-04-29T01:54:58.226Z,99.90
2019-04-29T01:57:39.527Z,99.90
2019-04-29T02:00:20.796Z,99.90
2019-04-29T02:03:00.148Z,99.90
2019-04-29T02:05:49.474Z,99.90
2019-04-29T02:08:37.560Z,99.90
2019-04-29T02:11:25.862Z,99.90
2019-04-29T02:14:13.885Z,99.90
2019-04-29T02:17:02.275Z,99.90
2019-04-29T02:22:57.310Z,99.90
2019-04-29T02:25:40.350Z,99.90
2019-04-29T02:28:21.086Z,99.90
2019-04-29T02:31:21.030Z,99.90
2019-04-29T02:34:01.668Z,99.90
2019-04-29T02:36:42.685Z,99.90
2019-04-29T02:39:42.581Z,99.90
2019-04-29T02:42:45.574Z,99.90
2019-04-29T02:45:30.869Z,99.90
2019-04-29T02:48:11.306Z,99.90
2019-04-29T02:50:52.455Z,99.90
2019-04-29T02:53:33.764Z,99.90
2019-04-29T02:56:14.822Z,99.90
2019-04-29T02:59:00.958Z,99.90
2019-04-29T03:07:28.481Z,99.90
2019-04-29T03:10:08.931Z,99.90
2019-04-29T03:12:50.044Z,99.90
2019-04-29T03:15:32.081Z,99.90
2019-04-29T03:18:12.808Z,99.90
2019-04-29T03:21:12.838Z,99.90
2019-04-29T03:23:54.117Z,99.90
2019-04-29T03:26:34.858Z,99.90
2019-04-29T03:29:34.518Z,99.90
2019-04-29T03:32:15.851Z,99.90
2019-04-29T03:34:56.564Z,99.90
2019-04-29T03:37:37.858Z,99.90
2019-04-29T03:40:18.438Z,99.90
2019-04-29T03:42:59.087Z,99.90
2019-04-29T03:45:39.846Z,99.90
2019-04-29T03:48:21.322Z,99.90
2019-04-29T03:51:02.154Z,99.90
2019-04-29T03:53:43.426Z,99.90
2019-04-29T03:56:24.455Z,99.90
2019-04-29T03:59:05.815Z,99.90
2019-04-29T04:08:04.417Z,99.90
2019-04-29T04:10:45.284Z,99.90
2019-04-29T04:13:26.677Z,99.90
2019-04-29T04:16:10.205Z,99.90
2019-04-29T04:18:52.664Z,99.90
2019-04-29T04:21:33.863Z,99.90
2019-04-29T04:24:15.264Z,99.90
2019-04-29T04:26:56.931Z,99.90
2019-04-29T04:29:38.421Z,99.90
2019-04-29T04:32:19.212Z,99.90
2019-04-29T04:35:00.684Z,99.90
2019-04-29T04:37:41.919Z,99.90
2019-04-29T04:40:29.055Z,99.90
2019-04-29T04:43:10.621Z,99.90
2019-04-29T04:45:51.652Z,99.90
2019-04-29T04:48:32.368Z,99.90
2019-04-29T04:56:19.892Z,99.90
2019-04-29T04:59:08.237Z,99.90
2019-04-29T05:01:37.106Z,99.90
2019-04-29T05:04:06.004Z,99.90
2019-04-29T05:06:54.164Z,99.90
2019-04-29T05:09:42.172Z,99.90
2019-04-29T05:12:30.260Z,99.90
2019-04-29T05:15:18.304Z,99.90
2019-04-29T05:18:06.626Z,99.90
2019-04-29T05:20:54.767Z,99.90
2019-04-29T05:23:42.833Z,99.90
2019-04-29T05:26:31.280Z,99.90
2019-04-29T05:29:19.535Z,99.90
2019-04-29T05:32:07.573Z,99.90
2019-04-29T05:40:56.852Z,99.90
2019-04-29T05:44:03.425Z,99.90
2019-04-29T05:46:53.438Z,99.90
2019-04-29T05:55:45.483Z,99.90
2019-04-29T05:58:32.816Z,99.90
2019-04-29T06:03:59.820Z,99.90
2019-04-29T06:06:44.017Z,99.90
2019-04-29T06:09:26.711Z,99.90
2019-04-29T06:12:08.391Z,99.90
2019-04-29T06:15:29.971Z,99.90
2019-04-29T06:17:46.635Z,99.90
2019-04-29T06:20:29.591Z,99.90
2019-04-29T06:23:14.217Z,99.90
2019-04-29T06:25:56.820Z,99.90
2019-04-29T06:28:37.613Z,99.90
2019-04-29T06:31:18.163Z,99.90
2019-04-29T06:34:00.608Z,99.90
2019-04-29T06:39:47.983Z,99.90
2019-04-29T06:42:29.567Z,99.90
2019-04-29T06:45:10.097Z,99.90
2019-04-29T06:47:49.571Z,99.90
2019-04-29T06:50:37.772Z,99.90
2019-04-29T06:56:19.572Z,99.90
2019-04-29T06:59:12.100Z,99.90
2019-04-29T07:01:57.832Z,99.90
2019-04-29T07:04:45.998Z,99.90
2019-04-29T07:07:34.147Z,99.90
2019-04-29T07:10:26.869Z,99.90
2019-04-29T07:13:12.102Z,99.90
2019-04-29T07:16:00.266Z,99.90
2019-04-29T07:18:53.419Z,99.90
2019-04-29T07:21:41.792Z,99.90
2019-04-29T07:24:27.838Z,99.90
2019-04-29T07:27:08.845Z,99.90
2019-04-29T07:29:49.922Z,99.90
2019-04-29T07:32:32.302Z,99.90
2019-04-29T07:35:13.392Z,99.90
2019-04-29T07:37:54.072Z,99.90
2019-04-29T07:40:38.806Z,99.90
2019-04-29T07:43:18.464Z,99.90
2019-04-29T07:46:24.111Z,99.90
2019-04-29T07:49:05.932Z,99.90
2019-04-29T07:51:47.290Z,99.90
2019-04-29T07:54:28.982Z,99.90
2019-04-29T07:57:12.433Z,99.90
2019-04-29T07:59:52.359Z,99.90
2019-04-29T08:02:33.041Z,99.90
2019-04-29T08:05:13.808Z,99.90
2019-04-29T08:07:55.746Z,99.90
2019-04-29T08:10:36.385Z,99.90
2019-04-29T08:13:17.203Z,99.90
2019-04-29T08:15:57.710Z,99.90
2019-04-29T08:18:38.891Z,99.90
2019-04-29T08:21:19.887Z,99.90
2019-04-29T08:24:01.491Z,99.90
2019-04-29T08:26:47.289Z,99.90
2019-04-29T08:29:25.833Z,99.90
2019-04-29T08:32:06.886Z,99.90
2019-04-29T08:34:47.744Z,99.90
2019-04-29T08:37:29.681Z,99.90
2019-04-29T08:40:16.487Z,99.90
2019-04-29T08:43:15.861Z,99.90
2019-04-29T08:49:11.481Z,99.90
2019-04-29T08:51:53.963Z,99.90
2019-04-29T08:54:37.173Z,99.90
2019-04-29T08:57:18.649Z,99.90
2019-04-29T08:59:59.789Z,99.90
2019-04-29T09:02:47.163Z,99.90
2019-04-29T09:05:25.629Z,99.90
2019-04-29T09:08:06.733Z,99.90
2019-04-29T09:10:48.327Z,99.90
2019-04-29T09:13:17.276Z,99.90
2019-04-29T09:16:05.553Z,99.90
2019-04-29T09:18:54.247Z,99.90
2019-04-29T09:25:11.678Z,99.90
2019-04-29T09:34:11.335Z,99.90
2019-04-29T09:36:59.752Z,99.90
2019-04-29T09:39:47.858Z,99.90
2019-04-29T09:42:56.994Z,99.90
2019-04-29T09:46:04.020Z,99.90
2019-04-29T09:48:44.830Z,99.90
2019-04-29T09:51:27.942Z,99.90
2019-04-29T09:54:09.776Z,99.90
2019-04-29T09:56:50.252Z,99.90
2019-04-29T09:59:30.858Z,99.90
2019-04-29T10:02:18.830Z,99.90
2019-04-29T10:05:26.062Z,99.90
2019-04-29T10:08:14.234Z,99.90
2019-04-29T10:11:02.444Z,99.90
2019-04-29T10:13:50.480Z,99.90
2019-04-29T10:16:57.681Z,99.90
2019-04-29T10:20:07.911Z,99.90
2019-04-29T10:22:50.199Z,99.90
2019-04-29T10:25:29.844Z,99.90
2019-04-29T10:28:10.475Z,99.90
2019-04-29T10:30:51.812Z,99.90
2019-04-29T10:33:32.363Z,99.90
2019-04-29T10:36:16.056Z,99.90
2019-04-29T10:38:57.027Z,99.90
2019-04-29T10:41:41.715Z,99.90
2019-04-29T10:44:44.713Z,99.90
2019-04-29T10:50:26.400Z,99.90
2019-04-29T10:53:10.894Z,99.90
2019-04-29T10:55:49.740Z,99.90
2019-04-29T10:58:35.181Z,99.90
2019-04-29T11:01:14.765Z,99.90
2019-04-29T11:04:00.259Z,99.90
2019-04-29T11:06:38.743Z,99.90
2019-04-29T11:09:46.370Z,99.90
2019-04-29T11:12:26.873Z,99.90
2019-04-29T11:15:09.871Z,99.90
2019-04-29T11:17:58.432Z,99.90
2019-04-29T11:20:32.326Z,99.90
2019-04-29T11:26:31.587Z,99.90
2019-04-29T11:29:12.480Z,99.90
2019-04-29T11:31:55.791Z,99.90
2019-04-29T11:34:56.130Z,99.90
2019-04-29T11:37:37.285Z,99.90
2019-04-29T11:40:20.484Z,99.90
2019-04-29T11:42:59.928Z,99.90
2019-04-29T11:45:40.603Z,99.90
2019-04-29T11:48:21.240Z,99.90
2019-04-29T11:54:12.380Z,99.90
2019-04-29T11:56:54.681Z,99.90
2019-04-29T12:11:36.287Z,99.90
2019-04-29T12:17:42.462Z,99.90
2019-04-29T12:20:28.666Z,99.90
2019-04-29T12:23:11.097Z,99.90
2019-04-29T12:25:51.586Z,99.90
2019-04-29T12:31:51.172Z,99.90
2019-04-29T12:41:05.602Z,99.90
2019-04-29T13:02:03.213Z,99.90
2019-04-29T13:05:03.371Z,99.90
2019-04-29T13:10:52.114Z,99.90
2019-04-29T13:19:45.974Z,99.90
2019-04-29T13:22:38.671Z,99.90
2019-04-29T13:25:29.632Z,99.90
2019-04-29T13:28:30.012Z,99.90
2019-04-29T13:30:51.407Z,99.90
2019-04-29T13:36:27.782Z,99.90
2019-04-29T13:39:16.207Z,99.90
2019-04-29T13:42:09.158Z,99.90
2019-04-29T13:45:07.524Z,99.90
2019-04-29T14:13:13.327Z,99.90
2019-04-29T15:06:00.272Z,99.90
2019-04-29T15:15:29.674Z,99.90
2019-04-29T15:18:47.342Z,99.90
2019-04-29T15:21:49.102Z,99.90
2019-04-29T15:24:36.807Z,99.90
2019-04-29T15:27:27.215Z,99.90
2019-04-29T15:33:06.530Z,99.90
2019-04-29T15:35:59.237Z,99.90
2019-04-29T15:38:47.283Z,99.90
2019-04-29T15:41:38.799Z,99.90
2019-04-29T15:44:31.533Z,99.90
2019-04-29T15:47:19.866Z,99.90
2019-04-29T15:50:06.650Z,99.90
2019-04-29T15:52:44.306Z,99.90
2019-04-29T15:55:25.682Z,99.90
2019-04-29T15:58:06.768Z,99.90
2019-04-29T16:00:52.737Z,99.90
2019-04-29T16:03:37.447Z,99.90
2019-04-29T16:15:18.527Z,99.90
2019-04-29T16:17:59.023Z,99.90
2019-04-29T16:20:40.069Z,99.90
2019-04-29T16:23:21.221Z,99.90
2019-04-29T16:28:44.337Z,99.90
2019-04-29T16:31:25.655Z,99.90
2019-04-29T16:34:06.423Z,99.90
2019-04-29T16:36:49.677Z,99.90
2019-04-29T16:39:29.825Z,99.90
2019-04-29T16:42:29.389Z,99.90
2019-04-29T16:45:12.224Z,99.90
2019-04-29T16:47:52.709Z,99.90
2019-04-29T16:50:33.365Z,99.90
2019-04-29T16:53:02.398Z,99.90
2019-04-29T16:55:35.838Z,99.90
2019-04-29T16:58:06.578Z,99.90
2019-04-29T17:06:41.623Z,99.90
2019-04-29T17:12:29.433Z,99.90
2019-04-29T17:15:35.482Z,99.90
2019-04-29T17:18:36.785Z,99.90
2019-04-29T17:21:13.745Z,99.90
2019-04-29T17:48:25.018Z,99.90
2019-04-29T17:51:13.424Z,99.90
2019-04-29T17:54:05.222Z,99.90
2019-04-29T18:14:49.061Z,99.90
2019-04-29T18:20:55.211Z,96.40
2019-04-29T18:26:39.782Z,96.80
2019-04-29T18:29:20.484Z,96.20
2019-04-29T18:32:05.131Z,92.60
2019-04-29T18:34:45.278Z,93.90
2019-04-29T18:37:30.368Z,92.30
2019-04-29T18:43:23.139Z,99.90
2019-04-29T18:46:06.273Z,99.90
2019-04-29T18:48:46.635Z,98.30
2019-04-29T18:51:28.764Z,95.80
2019-04-29T18:54:09.951Z,95.20
2019-04-29T18:56:50.718Z,96.10
2019-04-29T18:59:33.333Z,96.00
2019-04-29T19:02:14.882Z,95.70
2019-04-29T19:08:12.322Z,95.30
2019-04-29T19:10:50.936Z,95.10
2019-04-29T19:13:30.917Z,95.10
2019-04-29T19:16:12.674Z,95.80
2019-04-29T19:18:57.715Z,96.20
2019-04-29T19:21:37.114Z,95.90
2019-04-29T19:24:17.615Z,96.50
2019-04-29T19:27:00.546Z,97.20
2019-04-29T19:29:43.361Z,97.40
2019-04-29T19:32:24.752Z,98.10
2019-04-29T19:35:05.504Z,98.30
2019-04-29T19:37:46.126Z,98.40
2019-04-29T19:40:30.594Z,99.30
2019-04-29T19:43:10.309Z,98.70
2019-04-29T19:45:52.400Z,99.30
2019-04-29T19:48:34.785Z,99.30
2019-04-29T19:51:18.294Z,99.90
2019-04-29T19:53:58.358Z,99.90
2019-04-29T19:56:39.127Z,99.90
2019-04-29T19:59:20.368Z,99.90
2019-04-29T20:02:05.721Z,99.90
2019-04-29T20:10:05.445Z,99.90
2019-04-29T20:12:53.061Z,99.90
2019-04-29T20:16:10.954Z,99.90
2019-04-29T20:19:16.563Z,99.90
2019-04-29T20:22:00.535Z,99.90
2019-04-29T20:24:50.732Z,99.90
2019-04-29T20:27:43.315Z,99.90
2019-04-29T20:30:31.002Z,99.90
2019-04-29T20:33:20.812Z,99.90
2019-04-29T20:36:10.549Z,99.90
2019-04-29T20:39:00.410Z,99.90
2019-04-29T20:41:50.318Z,99.90
2019-04-29T20:44:44.531Z,99.90
2019-04-29T20:50:13.973Z,99.90
2019-04-29T20:53:15.650Z,99.90
2019-04-29T20:55:56.596Z,99.90
2019-04-29T21:01:43.304Z,99.90
2019-04-29T21:04:32.047Z,99.90
2019-04-29T21:07:06.877Z,99.90
2019-04-29T21:09:47.911Z,99.90
2019-04-29T21:18:27.118Z,99.90
2019-04-29T21:21:08.115Z,99.90
2019-04-29T21:23:48.811Z,99.90
2019-04-29T21:26:29.221Z,99.90
2019-04-29T21:29:10.642Z,99.90
2019-04-29T21:31:58.326Z,99.90
2019-04-29T21:43:27.218Z,99.90
2019-04-29T21:46:07.931Z,99.90
2019-04-29T21:48:48.547Z,99.90
2019-04-29T21:51:28.989Z,99.90
2019-04-29T21:54:14.101Z,99.90
2019-04-29T21:56:52.164Z,99.90
2019-04-29T21:59:32.551Z,99.90
2019-04-29T22:02:13.383Z,99.90
2019-04-29T22:04:55.217Z,99.90
2019-04-29T22:07:39.775Z,99.90
2019-04-29T22:10:20.019Z,99.90
2019-04-29T22:13:02.368Z,99.90
2019-04-29T22:15:43.048Z,99.90
2019-04-29T22:18:25.734Z,99.90
2019-04-29T22:21:09.714Z,99.90
2019-04-29T22:23:51.014Z,99.90
2019-04-29T22:32:42.604Z,99.90
2019-04-29T22:35:25.181Z,99.90
2019-04-29T22:38:07.899Z,99.90
2019-04-29T22:40:48.935Z,99.90
2019-04-29T22:46:29.295Z,99.90
2019-04-29T22:49:10.097Z,99.90
2019-04-29T22:51:54.540Z,99.90
2019-04-29T22:54:33.179Z,99.90
2019-04-29T22:57:15.633Z,99.90
2019-04-29T22:59:57.270Z,99.90
2019-04-29T23:02:38.244Z,99.90
2019-04-29T23:05:18.786Z,99.90
2019-04-29T23:08:00.237Z,99.90
2019-04-29T23:10:41.003Z,99.90
2019-04-29T23:13:21.813Z,99.90
2019-04-29T23:16:03.013Z,99.90
2019-04-29T23:18:45.857Z,99.90
2019-04-29T23:24:51.288Z,99.90
2019-04-29T23:27:31.944Z,99.90
2019-04-29T23:30:18.041Z,99.90
2019-04-29T23:32:57.784Z,99.90
2019-04-29T23:35:39.710Z,99.90
2019-04-29T23:38:21.164Z,99.90
2019-04-29T23:41:01.612Z,99.90
2019-04-29T23:43:42.900Z,99.90
2019-04-29T23:46:24.052Z,99.90
2019-04-29T23:49:06.655Z,99.90
2019-04-29T23:51:47.201Z,99.90
2019-04-29T23:54:27.651Z,99.90
2019-04-29T23:57:27.330Z,99.90
